Strona główna
METAR-TAF:

METAR-TAF

Lotnisko :

São Pedro da Aldeia, Rio de Janeiro, Brazylia

Szerokość geograficzna: 22-49S, Długość geograficzna: 042-06W, wysokość: 10 m

Aktualna obserwacja pogody

Raport powstał 6 godziny i 31 minut temu, godzina 20:00 UTC
Wiatr 5 kt od południowo-południowy wschód
Temperatura 25°C
Wilgotność 74%
Ciśnienie 1016 hPa
Widzialność 10 km lub więcej
Rozproszone chmury na wysokości 2500 ft
Zachmurzenie całkowite na wysokości 5000 ft

METAR: SBES 052000Z 15005KT 9999 SCT025 OVC050 25/20 Q1016

czas: 23:31 (02:31 UTC)


TAF: brakujący

Obserwacja i prognoza pogody dla ponad 4000 lotnisk (raport METAR i TAF).

Dostępne stacje oznaczono żółtymi i czerwonymi punktami na mapie.

Najedź kursorem aby zobaczyć nazwę stacji.

Kliknij aby zobaczyć obserwacje i prognozy pogody.

Aby zmienić mapę: kliknij na zielony przycisk z czarnym krzyżykiem, aby powiększyć; na zielony przycisk z myślnikiem, aby pomniejszyć; na zielone strzałki, aby przejść do map sąsiednich.


METAR-TAF: